Lerona, WV (25971)

4:20 AM EST on February 06, 2016 (GMT -0500)
Pine Cone Lane | | Change Station
CLOSE
Current Station
Personal Weather Station
Location: Lerona, WV
Elevation: 2425 ft
Nearby Weather Stations

Elev 2425 ft 37.51 °N, 80.99 °W | Updated 52 seconds ago

Clear
Clear
14.9 °F
Feels Like 15 °F
N
0.0
Wind Variable Wind from SW

Today
High -- | Low -- °F
--% Chance of Precip.
Yesterday
High -- | Low -- °F
Precip. -- in
Pressure 30.37 in
Visibility 10.0 miles
Clouds Clear
Windchill 15 °F
Dew Point 14 °F
Humidity 96%
Rainfall 0.00 in
Snow Depth Not available.
7:23 AM 5:53 PM
Waning Crescent, 6% visible
METAR KBLF 060852Z AUTO 00000KT 10SM CLR M04/M12 A3030 RMK AO2 SLP284 T10441122 56003 TSNO
Pressure 30.37 in
Visibility 10.0 miles
Clouds Clear
Windchill 15 °F
Dew Point 14 °F
Humidity 96%
Rainfall 0.00 in
Snow Depth Not available.
7:23 AM 5:53 PM
Waning Crescent, 6% visible
METAR KBLF 060852Z AUTO 00000KT 10SM CLR M04/M12 A3030 RMK AO2 SLP284 T10441122 56003 TSNO

10-Day Weather Forecast

Almanac

Astronomy

Feb. 06, 2016 Rise Set
Actual Time
Civil Twilight
Nautical Twilight
Astronomical Twilight
Moon
Length of Visible Light
Length of Day
Tomorrow will be .
, % of the Moon is Illuminated

Today's Extremes

State Highs State Lows

Community

WunderPhotos

Upload Photos

1,890,933 photos uploaded!

WunderBlog® & News

Nearby

Air Quality

  Air Quality AQ Index Pollutant
Not available.

Snow Depth

Station Depth Elevation

Earthquake Activity

City Distance Mag. Time & Date
Minimum magnitude displayed is 2.5.

Coastal Water Temperatures

Place Temperature

Stations

Nearby Weather Stations

Station Location Temp. Windchill Dew Point Humidity Wind Precip. Elev Updated Type
                   

Watches & Warnings

There are currently no watches in effect.